createdAt,value
2019-02-20T00:00:56.935Z,43.76
2019-02-20T00:06:00.411Z,43.83
2019-02-20T00:11:03.886Z,43.79
2019-02-20T00:16:07.374Z,43.81
2019-02-20T00:21:10.885Z,43.83
2019-02-20T00:26:14.371Z,43.80
2019-02-20T00:31:17.845Z,43.85
2019-02-20T00:36:21.337Z,43.84
2019-02-20T00:41:24.828Z,43.85
2019-02-20T00:46:29.942Z,43.85
2019-02-20T00:51:35.076Z,43.84
2019-02-20T00:56:38.564Z,43.85
2019-02-20T01:01:42.056Z,43.86
2019-02-20T01:06:45.544Z,43.85
2019-02-20T01:11:49.030Z,43.85
2019-02-20T01:16:52.519Z,43.84
2019-02-20T01:21:56.117Z,43.86
2019-02-20T01:26:59.575Z,43.84
2019-02-20T01:32:03.074Z,43.88
2019-02-20T01:37:06.563Z,43.89
2019-02-20T01:42:10.059Z,43.85
2019-02-20T01:47:13.551Z,43.86
2019-02-20T01:52:17.027Z,43.88
2019-02-20T01:57:20.498Z,43.85
2019-02-20T02:02:23.973Z,43.88
2019-02-20T02:07:27.450Z,43.88
2019-02-20T02:12:30.922Z,43.84
2019-02-20T02:17:34.410Z,43.85
2019-02-20T02:22:37.878Z,43.86
2019-02-20T02:27:41.356Z,43.86
2019-02-20T02:32:44.836Z,43.87
2019-02-20T02:37:48.331Z,43.86
2019-02-20T02:42:51.868Z,43.85
2019-02-20T02:47:55.346Z,43.86
2019-02-20T02:52:58.822Z,43.87
2019-02-20T02:58:02.299Z,43.89
2019-02-20T03:03:05.777Z,43.87
2019-02-20T03:08:09.253Z,43.86
2019-02-20T03:13:12.726Z,43.86
2019-02-20T03:18:16.208Z,43.86
2019-02-20T03:23:19.675Z,43.88
2019-02-20T03:28:23.151Z,43.84
2019-02-20T03:33:26.630Z,43.85
2019-02-20T03:38:30.743Z,43.84
2019-02-20T03:43:34.351Z,43.86
2019-02-20T03:48:37.826Z,43.86
2019-02-20T03:53:50.887Z,43.85
2019-02-20T03:58:46.498Z,43.86
2019-02-20T04:03:49.974Z,43.85
2019-02-20T04:08:53.449Z,43.83
2019-02-20T04:13:56.939Z,43.86
2019-02-20T04:19:00.416Z,43.85
2019-02-20T04:24:03.918Z,43.84
2019-02-20T04:29:07.383Z,43.84
2019-02-20T04:34:10.858Z,43.84
2019-02-20T04:39:14.333Z,43.86
2019-02-20T04:44:17.825Z,43.86
2019-02-20T04:49:21.328Z,43.89
2019-02-20T04:54:24.819Z,43.90
2019-02-20T04:59:28.405Z,44.01
2019-02-20T05:04:31.949Z,44.02
2019-02-20T05:09:35.426Z,44.04
2019-02-20T05:14:38.907Z,44.08
2019-02-20T05:19:42.381Z,44.09
2019-02-20T05:24:45.866Z,44.12
2019-02-20T05:29:49.326Z,44.11
2019-02-20T05:34:52.817Z,44.13
2019-02-20T05:39:56.333Z,44.14
2019-02-20T05:44:59.823Z,44.15
2019-02-20T05:50:03.388Z,44.17
2019-02-20T05:55:07.513Z,44.18
2019-02-20T06:00:13.153Z,44.18
2019-02-20T06:05:16.638Z,44.19
2019-02-20T06:10:20.130Z,44.20
2019-02-20T06:15:23.639Z,44.21
2019-02-20T06:20:27.134Z,44.22
2019-02-20T06:25:30.628Z,44.22
2019-02-20T06:30:34.119Z,44.21
2019-02-20T06:35:37.645Z,44.23
2019-02-20T06:40:41.170Z,44.24
2019-02-20T06:45:44.637Z,44.25
2019-02-20T06:50:48.125Z,44.27
2019-02-20T06:55:51.619Z,44.29
2019-02-20T07:00:55.120Z,44.31
2019-02-20T07:06:01.664Z,44.30
2019-02-20T07:11:22.717Z,44.29
2019-02-20T07:16:44.220Z,44.29
2019-02-20T07:21:59.762Z,44.31
2019-02-20T07:27:15.307Z,44.32
2019-02-20T07:32:18.784Z,44.30
2019-02-20T07:37:22.262Z,44.14
2019-02-20T07:42:25.736Z,44.14
2019-02-20T07:47:29.206Z,44.32
2019-02-20T07:52:32.681Z,44.35
2019-02-20T07:57:36.161Z,40.35
2019-02-20T08:02:39.636Z,31.26
2019-02-20T08:07:43.112Z,30.50
2019-02-20T08:12:46.600Z,30.54
2019-02-20T08:17:50.071Z,31.17
2019-02-20T08:22:53.586Z,31.63
2019-02-20T08:27:57.026Z,32.18
2019-02-20T08:33:00.520Z,33.41
2019-02-20T08:38:03.977Z,34.26
2019-02-20T08:43:07.457Z,35.29
2019-02-20T08:48:10.927Z,36.39
2019-02-20T08:53:14.417Z,36.95
2019-02-20T08:58:17.890Z,37.44
2019-02-20T09:03:21.368Z,37.95
2019-02-20T09:08:24.913Z,38.18
2019-02-20T09:13:28.404Z,38.37
2019-02-20T09:18:31.863Z,38.64
2019-02-20T09:23:35.334Z,38.68
2019-02-20T09:28:38.810Z,38.79
2019-02-20T09:33:42.304Z,38.83
2019-02-20T09:38:45.766Z,39.01
2019-02-20T09:43:49.244Z,39.10
2019-02-20T09:48:52.716Z,39.23
2019-02-20T09:53:56.208Z,39.38
2019-02-20T09:58:59.692Z,39.51
2019-02-20T10:04:03.176Z,39.93
2019-02-20T10:09:06.646Z,39.98
2019-02-20T10:14:10.125Z,40.25
2019-02-20T10:19:13.598Z,40.59
2019-02-20T10:24:17.078Z,41.08
2019-02-20T10:29:20.550Z,41.26
2019-02-20T10:34:24.027Z,41.37
2019-02-20T10:39:27.498Z,41.52
2019-02-20T10:44:30.978Z,41.92
2019-02-20T10:49:34.451Z,41.58
2019-02-20T10:54:37.925Z,41.18
2019-02-20T10:59:41.404Z,40.94
2019-02-20T11:04:44.870Z,41.32
2019-02-20T11:09:48.344Z,41.50
2019-02-20T11:14:51.824Z,41.73
2019-02-20T11:19:55.295Z,41.92
2019-02-20T11:24:58.766Z,41.92
2019-02-20T11:30:02.265Z,41.99
2019-02-20T11:35:07.373Z,42.18
2019-02-20T11:40:12.399Z,42.16
2019-02-20T11:45:16.912Z,42.61
2019-02-20T11:50:20.391Z,42.99
2019-02-20T11:55:23.863Z,42.96
2019-02-20T12:00:27.347Z,42.98
2019-02-20T12:05:30.821Z,43.10
2019-02-20T12:10:34.294Z,43.04
2019-02-20T12:15:37.776Z,43.04
2019-02-20T12:20:41.517Z,43.15
2019-02-20T12:25:45.071Z,43.27
2019-02-20T12:30:48.543Z,43.27
2019-02-20T12:35:52.010Z,43.34
2019-02-20T12:40:55.490Z,43.13
2019-02-20T12:45:59.034Z,43.05
2019-02-20T12:51:02.510Z,43.08
2019-02-20T12:56:10.040Z,43.03
2019-02-20T13:01:11.213Z,43.24
2019-02-20T13:06:14.682Z,43.21
2019-02-20T13:11:18.287Z,43.18
2019-02-20T13:16:21.769Z,43.30
2019-02-20T13:21:25.250Z,43.41
2019-02-20T13:26:28.722Z,43.49
2019-02-20T13:31:32.194Z,43.45
2019-02-20T13:36:35.666Z,43.65
2019-02-20T13:41:39.143Z,43.69
2019-02-20T13:46:43.475Z,43.68
2019-02-20T13:51:47.422Z,43.57
2019-02-20T13:56:50.902Z,43.73
2019-02-20T14:01:54.374Z,43.83
2019-02-20T14:06:59.728Z,44.10
2019-02-20T14:12:03.051Z,44.25
2019-02-20T14:17:06.531Z,44.34
2019-02-20T14:22:10.002Z,44.26
2019-02-20T14:27:13.478Z,44.26
2019-02-20T14:32:16.949Z,44.21
2019-02-20T14:37:20.422Z,44.21
2019-02-20T14:42:23.914Z,44.19
2019-02-20T14:47:27.367Z,44.18
2019-02-20T14:52:30.843Z,44.08
2019-02-20T14:57:34.498Z,44.02
2019-02-20T15:02:37.976Z,44.02
2019-02-20T15:07:41.451Z,44.15
2019-02-20T15:12:46.635Z,44.33
2019-02-20T15:17:50.291Z,44.37
2019-02-20T15:22:54.137Z,44.37
2019-02-20T15:27:57.616Z,44.39
2019-02-20T15:33:01.096Z,44.80
2019-02-20T15:38:05.222Z,44.80
2019-02-20T15:43:08.897Z,44.44
2019-02-20T15:48:12.656Z,44.48
2019-02-20T15:53:16.130Z,44.50
2019-02-20T15:58:19.608Z,44.45
2019-02-20T16:03:23.083Z,44.49
2019-02-20T16:08:26.559Z,44.49
2019-02-20T16:13:30.029Z,44.52
2019-02-20T16:18:33.581Z,44.54
2019-02-20T16:23:37.054Z,44.55
2019-02-20T16:28:40.532Z,44.58
2019-02-20T16:33:44.117Z,44.61
2019-02-20T16:38:47.562Z,44.61
2019-02-20T16:43:51.063Z,44.56
2019-02-20T16:48:54.539Z,44.50
2019-02-20T16:53:58.312Z,44.48
2019-02-20T16:59:01.787Z,44.49
2019-02-20T17:04:07.086Z,44.50
2019-02-20T17:09:10.863Z,44.47
2019-02-20T17:14:14.341Z,44.49
2019-02-20T17:19:18.172Z,44.60
2019-02-20T17:24:21.644Z,45.44
2019-02-20T17:29:25.122Z,46.08
2019-02-20T17:34:28.593Z,46.03
2019-02-20T17:39:32.141Z,46.03
2019-02-20T17:44:35.895Z,46.11
2019-02-20T17:49:39.370Z,46.12
2019-02-20T17:54:42.844Z,46.11
2019-02-20T17:59:46.326Z,46.02
2019-02-20T18:04:49.819Z,45.99
2019-02-20T18:09:53.317Z,45.99
2019-02-20T18:14:56.818Z,46.00
2019-02-20T18:20:00.316Z,45.99
2019-02-20T18:25:04.459Z,45.97
2019-02-20T18:30:13.523Z,45.90
2019-02-20T18:35:18.435Z,45.85
2019-02-20T18:40:21.915Z,45.84
2019-02-20T18:45:25.386Z,45.79
2019-02-20T18:50:28.863Z,45.74
2019-02-20T18:55:32.344Z,45.70
2019-02-20T19:00:35.819Z,45.70
2019-02-20T19:05:39.306Z,45.67
2019-02-20T19:10:42.783Z,45.63
2019-02-20T19:15:55.303Z,45.58
2019-02-20T19:21:13.729Z,45.47
2019-02-20T19:26:32.495Z,45.31
2019-02-20T19:31:39.124Z,45.16
2019-02-20T19:36:51.342Z,45.00
2019-02-20T19:41:57.879Z,44.87
2019-02-20T19:47:25.220Z,44.75
2019-02-20T19:52:49.925Z,44.66
2019-02-20T19:58:11.559Z,44.61
2019-02-20T20:03:40.749Z,44.60
2019-02-20T20:09:06.906Z,44.62
2019-02-20T20:14:25.183Z,44.63
2019-02-20T20:19:43.491Z,44.65
2019-02-20T20:24:58.535Z,44.65
2019-02-20T20:30:36.817Z,44.67
2019-02-20T20:36:09.142Z,44.65
2019-02-20T20:41:24.414Z,44.62
2019-02-20T20:46:36.485Z,44.61
2019-02-20T20:52:08.854Z,44.60
2019-02-20T20:57:30.237Z,44.59
2019-02-20T21:02:36.761Z,44.61
2019-02-20T21:07:55.426Z,44.54
2019-02-20T21:13:11.006Z,44.58
2019-02-20T21:18:32.282Z,44.57
2019-02-20T21:23:50.709Z,44.64
2019-02-20T21:29:12.082Z,44.63
2019-02-20T21:34:41.222Z,44.67
2019-02-20T21:39:47.751Z,44.72
2019-02-20T21:45:16.619Z,44.74
2019-02-20T21:50:43.948Z,44.79
2019-02-20T21:56:11.581Z,44.84
2019-02-20T22:01:24.046Z,44.81
2019-02-20T22:06:48.767Z,44.90
2019-02-20T22:11:57.774Z,44.90
2019-02-20T22:17:23.717Z,45.00
2019-02-20T22:22:30.250Z,45.03
2019-02-20T22:27:39.562Z,45.03
2019-02-20T22:32:46.089Z,45.09
2019-02-20T22:37:58.509Z,45.07
2019-02-20T22:43:10.789Z,45.16
2019-02-20T22:48:23.664Z,45.19
2019-02-20T22:53:51.531Z,45.20
2019-02-20T22:59:00.910Z,45.20
2019-02-20T23:04:15.789Z,45.27
2019-02-20T23:09:28.628Z,45.25
2019-02-20T23:14:44.025Z,45.29
2019-02-20T23:19:47.498Z,45.34
2019-02-20T23:24:50.975Z,45.24
2019-02-20T23:29:54.452Z,45.31
2019-02-20T23:34:57.933Z,45.30
2019-02-20T23:40:01.426Z,45.34
2019-02-20T23:45:07.605Z,45.33
2019-02-20T23:50:11.307Z,45.36
2019-02-20T23:55:14.782Z,45.37
